Fountain Green, Utah
Current Conditions -  °F | °C
As of 6:15 AM on Tuesday 21 Oct 2014 (Local Time) from KPVU Reporting Station
Broken Clouds Broken Clouds  
Wind Chill: 59°   Ceiling: 11000
Heat Index: 59°   Visibility: 10mi
Dew Point: 39°   Wind: 5mph
Humidity: 48%   Direction: 120°ESE
Pressure: 29.94"   Gusts: NA
Location:  39.63°N, 111.64°W
Report Text: KPVU 211215Z AUTO 12004KT 10SM SCT090 BKN110 15/04 A2994 RMK AO1
Loading
Personal Weather Stations






























Interactive Weather Map
Tropical Storm Tracking
New forecast layout! Learn more

10-Day Weather Forecast

Advertisements
Track Severe Weather on mobile